Terminal Aerodrome Forecast
Issued by NWS Central Illinois

Home | Current Version | Previous Version | Text Only | Print | Product List | Glossary On
Versions: 1 2 3 4 5 6 7 8 9 10 11 12 13 14 15 16 17 18 19 20
000
FTUS43 KILX 272300
TAFPIA
TAF
KPIA 272332Z 2800/2824 VRB05KT P6SM SCT250
     FM280400 VRB05KT P6SM BKN070
     FM281300 16011G17KT P6SM SCT080
     FM281700 18013G23KT P6SM SCT080 BKN150=

USA.gov is the U.S. government's official web portal to all federal, state and local government web resources and services.